Time;durP1;ratioP1;P1;durP2;ratioP2;P2;SDS_P1;SDS_P2;PMS_P1;PMS_P2;Temp;Humidity;BMP_temperature;BMP_pressure;BME280_temperature;BME280_humidity;BME280_pressure;Samples;Min_cycle;Max_cycle;Signal;HPM_P1;HPM_P2
2022/02/22 00:00:22;;;;;;;23.60;17.80;;;;;;;13.13;100.00;99816.75;4900088;29;20060;-71
2022/02/22 00:03:08;;;;;;;25.33;17.50;;;;;;;13.05;100.00;99813.59;4899472;29;20068;-70
2022/02/22 00:05:54;;;;;;;24.52;17.40;;;;;;;13.37;100.00;99820.97;4899674;29;20429;-71
2022/02/22 00:08:40;;;;;;;25.40;17.38;;;;;;;13.79;100.00;99823.50;4900591;29;20075;-70
2022/02/22 00:11:26;;;;;;;24.98;17.27;;;;;;;13.66;100.00;99825.81;4899809;29;20036;-70
2022/02/22 00:14:12;;;;;;;24.95;17.85;;;;;;;13.44;100.00;99818.91;4887071;29;20469;-70
2022/02/22 00:16:58;;;;;;;25.45;18.40;;;;;;;13.34;100.00;99825.50;4899687;29;20437;-70
2022/02/22 00:19:44;;;;;;;26.30;18.02;;;;;;;13.07;100.00;99821.41;4899918;29;20036;-70
2022/02/22 00:22:30;;;;;;;28.65;18.35;;;;;;;13.34;100.00;99821.09;4899612;29;20028;-70
2022/02/22 00:25:16;;;;;;;26.88;18.17;;;;;;;13.18;100.00;99816.56;4899684;29;20032;-70
2022/02/22 00:28:01;;;;;;;26.42;18.08;;;;;;;12.97;100.00;99807.78;4886268;29;20040;-71
2022/02/22 00:30:48;;;;;;;26.80;18.75;;;;;;;12.78;100.00;99813.84;4886974;29;20108;-70
2022/02/22 00:33:34;;;;;;;28.73;19.52;;;;;;;13.16;100.00;99814.00;4899834;29;20493;-70
2022/02/22 00:36:20;;;;;;;29.92;18.88;;;;;;;13.16;100.00;99815.75;4899524;29;20032;-72
2022/02/22 00:39:06;;;;;;;29.75;19.40;;;;;;;13.18;100.00;99817.41;4874715;29;20033;-70
2022/02/22 00:41:52;;;;;;;28.77;18.95;;;;;;;13.07;100.00;99809.09;4899059;29;20039;-71
2022/02/22 00:44:37;;;;;;;27.73;18.38;;;;;;;12.94;100.00;99802.63;4899303;29;20426;-71
2022/02/22 00:47:23;;;;;;;28.95;19.20;;;;;;;12.82;100.00;99803.13;4899177;29;20100;-70
2022/02/22 00:50:09;;;;;;;27.83;18.55;;;;;;;12.73;100.00;99798.25;4899277;29;20025;-71
2022/02/22 00:52:58;;;;;;;27.77;18.95;;;;;;;12.70;100.00;99805.41;4886250;29;20047;-70
2022/02/22 00:55:44;;;;;;;27.38;19.20;;;;;;;12.70;100.00;99802.78;4899406;29;20036;-71
2022/02/22 00:58:30;;;;;;;28.40;18.75;;;;;;;12.49;100.00;99793.97;4899044;29;20039;-70
2022/02/22 01:01:17;;;;;;;27.20;18.33;;;;;;;12.72;100.00;99787.78;4899332;29;20445;-71
2022/02/22 01:04:03;;;;;;;25.65;18.10;;;;;;;13.19;100.00;99795.44;4898721;29;20361;-71
2022/02/22 01:06:49;;;;;;;24.67;17.73;;;;;;;13.09;100.00;99788.88;4899081;29;20109;-70
2022/02/22 01:09:35;;;;;;;28.17;18.90;;;;;;;12.89;100.00;99780.94;4898845;29;20055;-71
2022/02/22 01:12:21;;;;;;;26.42;17.75;;;;;;;12.78;100.00;99788.38;4885942;29;20103;-71
2022/02/22 01:15:08;;;;;;;26.88;18.40;;;;;;;13.07;100.00;99774.91;4898700;29;20055;-71
2022/02/22 01:17:54;;;;;;;27.50;17.95;;;;;;;12.71;100.00;99776.44;4898487;29;20059;-70
2022/02/22 01:20:40;;;;;;;25.50;17.80;;;;;;;12.58;100.00;99769.94;4885967;29;20480;-72
2022/02/22 01:23:25;;;;;;;28.55;17.85;;;;;;;12.72;100.00;99775.53;4898633;29;20036;-71
2022/02/22 01:26:11;;;;;;;29.70;17.70;;;;;;;12.86;100.00;99762.63;4885919;29;20040;-71
2022/02/22 01:28:58;;;;;;;24.67;16.60;;;;;;;13.02;100.00;99762.91;4899164;29;20033;-70
2022/02/22 01:31:44;;;;;;;22.92;16.88;;;;;;;13.19;100.00;99774.38;4898604;29;20036;-71
2022/02/22 01:34:30;;;;;;;24.50;17.40;;;;;;;12.89;100.00;99773.03;4899054;29;20465;-70
2022/02/22 05:25:15;;;;;;;33.88;23.67;;;;;;;9.82;100.00;99873.91;5854247;23;19929;-71
2022/02/22 05:28:01;;;;;;;37.67;24.52;;;;;;;9.85;100.00;99876.44;4917194;29;20044;-71
2022/02/22 09:14:34;;;;;;;38.05;25.27;;;;;;;12.19;100.00;100154.06;5172497;23;20048;-70
2022/02/22 09:17:20;;;;;;;37.90;23.83;;;;;;;12.29;100.00;100164.22;4899183;29;20146;-70
2022/02/22 09:20:08;;;;;;;39.05;25.98;;;;;;;12.38;100.00;100158.66;4899971;29;20112;-71
2022/02/22 09:22:54;;;;;;;39.17;25.08;;;;;;;12.61;100.00;100174.50;4898684;29;20075;-71
2022/02/22 09:25:40;;;;;;;37.58;23.77;;;;;;;12.47;100.00;100163.63;4898348;29;20039;-70
2022/02/22 09:28:26;;;;;;;34.35;22.50;;;;;;;12.46;100.00;100167.13;4898942;29;20020;-70
2022/02/22 09:31:12;;;;;;;38.10;24.52;;;;;;;12.28;100.00;100161.66;4899726;29;20111;-71
2022/02/22 09:33:58;;;;;;;35.53;23.90;;;;;;;12.51;100.00;100167.88;4898067;29;20115;-71
2022/02/22 09:36:43;;;;;;;35.65;24.25;;;;;;;12.48;100.00;100159.22;4898329;29;20055;-71
2022/02/22 09:39:31;;;;;;;35.65;24.13;;;;;;;12.19;100.00;100165.44;4898597;29;20119;-71
2022/02/22 09:42:16;;;;;;;36.83;24.17;;;;;;;12.54;100.00;100159.84;4898110;29;20052;-70
2022/02/22 09:45:06;;;;;;;35.00;23.33;;;;;;;12.83;100.00;100172.84;4899336;29;20449;-70
2022/02/22 09:47:58;;;;;;;39.33;24.30;;;;;;;12.93;100.00;100179.50;4898275;29;20103;-71
2022/02/22 10:41:36;;;;;;;35.45;22.30;;;;;;;14.57;100.00;100181.84;5171980;23;20048;-71
2022/02/22 10:44:31;;;;;;;30.65;21.85;;;;;;;15.43;100.00;100185.97;4899122;29;20049;-71
2022/02/22 10:47:19;;;;;;;31.65;22.17;;;;;;;15.64;100.00;100185.00;4898402;29;20437;-71
2022/02/22 10:50:06;;;;;;;29.63;20.98;;;;;;;14.71;100.00;100176.84;4901946;29;20445;-70
2022/02/22 10:52:52;;;;;;;29.52;20.90;;;;;;;14.94;100.00;100188.19;4901338;29;20074;-71
2022/02/22 10:55:38;;;;;;;31.00;20.63;;;;;;;14.57;100.00;100179.22;4901319;29;20028;-70
2022/02/22 10:58:25;;;;;;;33.47;20.00;;;;;;;15.07;100.00;100184.94;4901771;29;20039;-71
2022/02/22 11:01:13;;;;;;;30.02;20.00;;;;;;;15.56;100.00;100187.13;4901908;29;20036;-70
2022/02/22 11:03:59;;;;;;;31.13;21.38;;;;;;;15.58;100.00;100189.69;4901088;29;20446;-70
2022/02/22 11:06:45;;;;;;;30.60;21.52;;;;;;;15.06;100.00;100191.13;4901739;29;20115;-71
2022/02/22 11:09:31;;;;;;;32.22;22.73;;;;;;;14.99;100.00;100197.59;4901835;29;20521;-70
2022/02/22 11:12:27;;;;;;;28.08;20.90;;;;;;;15.42;100.00;100202.72;4900908;29;20043;-71
2022/02/22 11:15:13;;;;;;;31.92;22.00;;;;;;;14.98;100.00;100193.25;4901754;29;20029;-71
2022/02/22 11:18:18;;;;;;;32.72;22.08;;;;;;;14.88;100.00;100203.34;4901371;29;20029;-71
2022/02/22 12:15:11;;;;;;;35.88;26.48;;;;;;;12.87;100.00;100276.97;5491093;23;20100;-71
2022/02/22 12:17:56;;;;;;;39.80;27.15;;;;;;;12.63;100.00;100296.22;4899501;29;20044;-71
2022/02/22 12:20:44;;;;;;;37.72;26.23;;;;;;;12.35;100.00;100290.13;4900442;29;20029;-71
2022/02/22 12:23:29;;;;;;;41.25;28.40;;;;;;;12.40;100.00;100293.47;4898912;29;20440;-70
2022/02/22 12:26:18;;;;;;;39.05;26.85;;;;;;;12.54;100.00;100288.63;4899948;29;20055;-71
2022/02/22 12:29:07;;;;;;;39.92;27.25;;;;;;;11.97;100.00;100293.03;4899572;29;20039;-70
2022/02/22 12:31:58;;;;;;;39.67;28.83;;;;;;;12.47;100.00;100286.25;4899815;29;20062;-71
2022/02/22 12:34:45;;;;;;;39.67;27.33;;;;;;;12.51;100.00;100298.38;4899589;29;20111;-70
2022/02/22 12:37:41;;;;;;;41.63;29.17;;;;;;;12.98;100.00;100301.19;4899900;29;20414;-70
2022/02/22 12:40:31;;;;;;;49.03;31.58;;;;;;;12.54;100.00;100301.75;4899122;29;20047;-71
2022/02/22 12:43:17;;;;;;;44.22;31.10;;;;;;;13.05;100.00;100304.47;4898936;29;20028;-70
2022/02/22 12:46:03;;;;;;;45.97;30.65;;;;;;;12.88;100.00;100312.91;4898565;29;20101;-70
2022/02/22 12:48:51;;;;;;;47.13;30.52;;;;;;;12.66;100.00;100322.38;4899231;29;20091;-70
2022/02/22 12:51:38;;;;;;;47.00;31.67;;;;;;;12.63;100.00;100317.25;4899862;29;20330;-71
2022/02/22 12:54:24;;;;;;;43.20;31.63;;;;;;;12.77;100.00;100327.28;4899143;29;20425;-71
2022/02/22 12:57:09;;;;;;;44.78;31.70;;;;;;;13.01;100.00;100323.88;4900831;29;20025;-71
2022/02/22 13:00:03;;;;;;;47.45;32.83;;;;;;;13.04;100.00;100334.31;4899426;29;20032;-71
2022/02/22 13:02:49;;;;;;;49.15;34.50;;;;;;;12.85;100.00;100325.28;4899224;29;20115;-71
2022/02/22 13:05:40;;;;;;;52.90;35.28;;;;;;;12.68;100.00;100328.47;4899362;29;20111;-71
2022/02/22 13:08:26;;;;;;;54.75;37.70;;;;;;;12.34;100.00;100330.41;4899283;29;20060;-70
2022/02/22 13:11:12;;;;;;;57.47;38.50;;;;;;;12.32;100.00;100336.63;4898158;29;20040;-71
2022/02/22 13:13:57;;;;;;;56.13;38.75;;;;;;;12.52;100.00;100340.38;4899121;29;20025;-71
2022/02/22 13:16:54;;;;;;;56.92;37.72;;;;;;;12.06;100.00;100340.03;4899150;29;20044;-72
2022/02/22 13:19:41;;;;;;;57.28;36.88;;;;;;;12.53;100.00;100341.22;4899310;29;20032;-71
2022/02/22 13:22:38;;;;;;;53.72;36.80;;;;;;;12.67;100.00;100346.91;4898295;29;20058;-70
2022/02/22 13:25:24;;;;;;;55.85;37.95;;;;;;;12.62;100.00;100347.03;4898838;29;20039;-71
2022/02/22 13:28:10;;;;;;;53.00;36.88;;;;;;;12.54;100.00;100354.31;4898964;29;20092;-71
2022/02/22 13:30:56;;;;;;;54.17;38.00;;;;;;;12.33;100.00;100354.97;4898280;29;20032;-71
2022/02/22 13:33:43;;;;;;;51.90;35.22;;;;;;;12.67;100.00;100358.28;4898348;29;20043;-70
2022/02/22 13:36:58;;;;;;;48.85;35.10;;;;;;;12.27;100.00;100360.44;4899410;29;20063;-73
2022/02/22 13:39:44;;;;;;;45.33;30.70;;;;;;;12.15;100.00;100360.78;4893592;29;20045;-70
2022/02/22 13:42:43;;;;;;;40.60;29.00;;;;;;;12.20;100.00;100366.75;4900028;29;20032;-74
2022/02/22 13:45:33;;;;;;;38.75;27.60;;;;;;;12.33;100.00;100372.50;4899754;29;20040;-72
2022/02/22 13:48:19;;;;;;;35.88;24.98;;;;;;;12.22;100.00;100371.97;4898562;29;20021;-70
2022/02/22 13:51:07;;;;;;;33.88;23.65;;;;;;;12.52;100.00;100381.53;4898724;29;20024;-71
2022/02/22 13:53:54;;;;;;;31.05;23.38;;;;;;;12.52;100.00;100386.78;4897746;29;20148;-71
2022/02/22 13:56:42;;;;;;;27.65;20.65;;;;;;;12.03;100.00;100387.41;4898048;29;20037;-70
2022/02/22 13:59:39;;;;;;;25.45;19.38;;;;;;;12.16;100.00;100386.13;4898557;29;20043;-70
2022/02/22 14:02:27;;;;;;;21.52;16.70;;;;;;;11.86;100.00;100389.63;4899092;29;20037;-71
2022/02/22 14:05:13;;;;;;;19.05;14.95;;;;;;;11.96;100.00;100391.09;4897799;29;20060;-70
2022/02/22 14:07:58;;;;;;;18.58;14.43;;;;;;;11.93;100.00;100396.44;4899263;29;20028;-71
2022/02/22 14:10:46;;;;;;;19.40;13.82;;;;;;;11.84;100.00;100401.06;4898951;29;20317;-71
2022/02/22 14:13:35;;;;;;;17.55;13.23;;;;;;;11.97;100.00;100403.31;4898160;29;20035;-70
2022/02/22 14:16:21;;;;;;;16.95;13.38;;;;;;;11.48;100.00;100407.25;4897670;29;20116;-72
2022/02/22 14:19:07;;;;;;;17.30;13.82;;;;;;;11.70;100.00;100409.31;4898269;29;20108;-71
2022/02/22 14:21:53;;;;;;;16.60;13.70;;;;;;;11.90;100.00;100408.78;4899157;29;20119;-71
2022/02/22 14:24:51;;;;;;;17.67;13.98;;;;;;;11.95;100.00;100417.38;4902025;29;20035;-71
2022/02/22 14:27:38;;;;;;;16.27;12.98;;;;;;;11.90;100.00;100419.28;4903066;29;20036;-70
2022/02/22 14:30:24;;;;;;;14.93;12.13;;;;;;;11.57;100.00;100421.00;4901466;29;20040;-71
2022/02/22 14:33:10;;;;;;;13.60;9.43;;;;;;;11.42;100.00;100426.66;4901728;29;20077;-71
2022/02/22 14:35:56;;;;;;;11.25;8.43;;;;;;;11.17;100.00;100424.69;4902109;29;20044;-70
2022/02/22 14:38:42;;;;;;;11.70;7.97;;;;;;;11.54;100.00;100428.94;4901503;29;20135;-71
2022/02/22 14:41:31;;;;;;;12.02;6.93;;;;;;;11.31;100.00;100433.94;4901268;29;20051;-71
2022/02/22 14:44:16;;;;;;;9.45;6.65;;;;;;;11.22;100.00;100433.31;4902002;29;20036;-70
2022/02/22 14:47:02;;;;;;;11.95;7.93;;;;;;;11.30;100.00;100436.59;4901901;29;20057;-71
2022/02/22 14:49:51;;;;;;;12.02;7.05;;;;;;;11.27;100.00;100450.66;4901565;29;20079;-70
2022/02/22 14:52:36;;;;;;;11.80;7.75;;;;;;;11.30;100.00;100452.31;4901847;29;20036;-71
2022/02/22 14:55:22;;;;;;;9.80;7.72;;;;;;;11.18;100.00;100460.50;4901134;29;20369;-71
2022/02/22 14:58:08;;;;;;;11.25;7.90;;;;;;;11.12;100.00;100468.50;4901919;29;20087;-71
2022/02/22 15:00:54;;;;;;;12.90;8.35;;;;;;;11.10;100.00;100468.56;4902009;29;20358;-71
2022/02/22 15:03:41;;;;;;;11.60;7.72;;;;;;;11.13;100.00;100468.47;4900611;29;20079;-71
2022/02/22 15:06:27;;;;;;;13.00;8.10;;;;;;;10.91;100.00;100477.72;4900765;29;20032;-71
2022/02/22 15:09:12;;;;;;;10.82;7.78;;;;;;;11.02;100.00;100486.22;4901346;29;20372;-70
2022/02/22 15:11:58;;;;;;;10.43;7.55;;;;;;;10.97;100.00;100482.81;4887355;29;20029;-72
2022/02/22 15:14:44;;;;;;;12.23;7.88;;;;;;;10.82;100.00;100490.16;4901645;29;20059;-72
2022/02/22 15:17:30;;;;;;;10.73;7.70;;;;;;;11.03;100.00;100505.41;4900845;29;20450;-71
2022/02/22 15:20:16;;;;;;;11.20;7.90;;;;;;;10.94;100.00;100503.88;4901909;29;20040;-71
2022/02/22 15:23:02;;;;;;;11.88;8.23;;;;;;;10.90;100.00;100515.31;4900570;29;20455;-71
2022/02/22 15:25:49;;;;;;;10.85;8.10;;;;;;;10.72;100.00;100515.72;4900630;29;20024;-71
2022/02/22 15:28:35;;;;;;;11.25;8.40;;;;;;;10.89;100.00;100512.75;4900818;29;20126;-71
2022/02/22 15:31:21;;;;;;;14.38;8.98;;;;;;;11.03;100.00;100522.00;4900959;29;20111;-72
2022/02/22 15:34:07;;;;;;;12.95;9.57;;;;;;;11.03;100.00;100519.41;4899874;29;20328;-72
2022/02/22 15:36:53;;;;;;;14.13;9.35;;;;;;;11.00;100.00;100524.69;4900881;29;20425;-72
2022/02/22 15:39:41;;;;;;;13.70;9.48;;;;;;;10.90;100.00;100538.03;4900590;29;20446;-71
2022/02/22 15:42:27;;;;;;;16.85;10.95;;;;;;;10.91;100.00;100534.50;4900258;29;20048;-71
2022/02/22 15:45:12;;;;;;;13.48;9.50;;;;;;;10.51;100.00;100549.34;4900287;29;20032;-71
2022/02/22 15:47:58;;;;;;;16.42;10.18;;;;;;;10.76;100.00;100547.97;4900307;29;20037;-71
2022/02/22 15:50:45;;;;;;;16.13;9.88;;;;;;;10.79;100.00;100548.75;4901205;29;20033;-72
2022/02/22 15:53:31;;;;;;;15.73;10.10;;;;;;;10.77;100.00;100552.31;4899293;29;20524;-71
2022/02/22 15:56:17;;;;;;;14.32;10.15;;;;;;;10.86;100.00;100557.34;4900664;29;20118;-71
2022/02/22 15:59:03;;;;;;;17.27;10.80;;;;;;;10.84;100.00;100559.16;4900236;29;20494;-72
2022/02/22 16:01:48;;;;;;;14.57;10.38;;;;;;;10.84;100.00;100561.78;4900106;29;20028;-71
2022/02/22 16:04:34;;;;;;;15.70;11.27;;;;;;;11.05;100.00;100571.78;4900134;29;20040;-71
2022/02/22 16:07:20;;;;;;;18.45;11.55;;;;;;;10.66;100.00;100568.25;4899313;29;20060;-71
2022/02/22 16:10:06;;;;;;;18.17;11.55;;;;;;;10.99;100.00;100574.53;4900257;29;20440;-71
2022/02/22 16:12:52;;;;;;;17.52;11.88;;;;;;;10.80;100.00;100586.31;4899785;29;20028;-70
2022/02/22 16:15:38;;;;;;;16.05;11.73;;;;;;;10.85;100.00;100587.91;4900290;29;20049;-71
2022/02/22 16:18:23;;;;;;;15.25;11.18;;;;;;;10.11;100.00;100601.59;4899428;29;20056;-71
2022/02/22 16:21:09;;;;;;;16.77;10.98;;;;;;;10.43;100.00;100595.75;4899421;29;20472;-71
2022/02/22 16:23:55;;;;;;;15.68;10.70;;;;;;;10.40;100.00;100604.53;4899395;29;20037;-70
2022/02/22 16:26:41;;;;;;;14.13;10.27;;;;;;;10.36;100.00;100613.34;4899945;29;20046;-71
2022/02/22 16:29:27;;;;;;;14.80;9.73;;;;;;;10.49;100.00;100625.31;4899667;29;20107;-70
2022/02/22 16:32:14;;;;;;;13.23;9.43;;;;;;;10.65;100.00;100636.41;4899351;29;20044;-70
2022/02/22 16:35:00;;;;;;;15.30;9.93;;;;;;;10.61;100.00;100635.56;4898840;29;20025;-70
2022/02/22 16:37:45;;;;;;;15.35;10.45;;;;;;;10.63;100.00;100644.28;4900269;29;20111;-71
2022/02/22 16:40:33;;;;;;;15.00;10.02;;;;;;;10.60;100.00;100651.34;4899204;29;20035;-71
2022/02/22 16:43:20;;;;;;;14.07;10.07;;;;;;;10.36;100.00;100643.94;4899628;29;20032;-71
2022/02/22 16:46:08;;;;;;;13.32;9.85;;;;;;;10.49;100.00;100648.03;4899469;29;20124;-71
2022/02/22 16:48:54;;;;;;;15.18;9.57;;;;;;;10.47;100.00;100647.19;4899588;29;20368;-71
2022/02/22 16:51:40;;;;;;;15.02;9.52;;;;;;;10.26;100.00;100653.69;4899504;29;20096;-71
2022/02/22 16:54:28;;;;;;;16.27;9.93;;;;;;;10.38;100.00;100663.09;4899125;29;20441;-71
2022/02/22 16:57:14;;;;;;;14.15;9.20;;;;;;;10.17;100.00;100668.69;4898990;29;20032;-71
2022/02/22 17:00:01;;;;;;;14.73;9.23;;;;;;;10.40;100.00;100677.88;4898828;29;20446;-71
2022/02/22 17:02:47;;;;;;;14.55;9.25;;;;;;;10.51;100.00;100683.78;4899391;29;20056;-71
2022/02/22 17:05:33;;;;;;;17.02;10.07;;;;;;;10.29;100.00;100679.81;4898784;29;20038;-71
2022/02/22 17:08:19;;;;;;;14.52;9.77;;;;;;;10.14;100.00;100683.53;4898890;29;20099;-71
2022/02/22 17:11:05;;;;;;;16.33;9.20;;;;;;;10.21;100.00;100686.94;4898467;29;20500;-71
2022/02/22 17:13:51;;;;;;;20.63;12.15;;;;;;;10.09;100.00;100690.63;4898829;29;20044;-71
2022/02/22 17:16:38;;;;;;;26.67;15.85;;;;;;;10.14;100.00;100688.78;4898022;29;20056;-71
2022/02/22 17:19:23;;;;;;;26.42;14.77;;;;;;;9.89;100.00;100702.25;4899003;29;20032;-71
2022/02/22 17:22:09;;;;;;;13.77;9.00;;;;;;;9.86;100.00;100700.53;4900266;29;20036;-71
2022/02/22 17:24:55;;;;;;;14.90;9.38;;;;;;;9.92;100.00;100704.81;4900057;29;20518;-71
2022/02/22 17:27:41;;;;;;;12.40;8.57;;;;;;;9.92;100.00;100710.03;4899004;29;20032;-71
2022/02/22 17:30:27;;;;;;;13.63;8.52;;;;;;;9.88;100.00;100705.75;4898491;29;20025;-71
2022/02/22 17:33:13;;;;;;;11.85;8.18;;;;;;;9.99;100.00;100720.41;4898726;29;20339;-71
2022/02/22 17:36:01;;;;;;;14.13;9.27;;;;;;;9.98;100.00;100718.66;4900218;29;20176;-71
2022/02/22 17:38:47;;;;;;;13.63;9.55;;;;;;;9.95;100.00;100723.97;4899626;29;20048;-71
2022/02/22 17:41:34;;;;;;;15.98;9.38;;;;;;;10.17;100.00;100721.94;4898901;29;20342;-71
2022/02/22 17:44:19;;;;;;;17.33;9.82;;;;;;;10.10;100.00;100736.00;4898462;29;20056;-72
2022/02/22 17:47:05;;;;;;;15.70;10.13;;;;;;;10.11;100.00;100737.72;4897901;29;20021;-71
2022/02/22 17:49:51;;;;;;;17.13;9.60;;;;;;;9.94;100.00;100737.91;4898165;29;20099;-72
2022/02/22 17:52:37;;;;;;;14.55;9.80;;;;;;;10.03;100.00;100739.53;4898061;29;20035;-70
2022/02/22 17:55:22;;;;;;;13.18;9.68;;;;;;;10.07;100.00;100746.50;4898277;29;20047;-71
2022/02/22 17:58:08;;;;;;;15.50;10.02;;;;;;;10.13;100.00;100749.03;4898567;29;20410;-70
2022/02/22 18:00:54;;;;;;;14.70;9.73;;;;;;;9.76;100.00;100751.28;4898846;29;20032;-71
2022/02/22 18:03:40;;;;;;;15.40;10.05;;;;;;;10.06;100.00;100761.31;4898619;29;20033;-72
2022/02/22 18:06:28;;;;;;;17.45;10.80;;;;;;;10.05;100.00;100758.75;4897806;29;20056;-70
2022/02/22 18:09:14;;;;;;;13.77;9.60;;;;;;;9.75;100.00;100767.00;4898580;29;20528;-71
2022/02/22 18:12:00;;;;;;;14.95;9.70;;;;;;;9.66;100.00;100777.59;4898835;29;20394;-71
2022/02/22 18:14:45;;;;;;;15.20;9.65;;;;;;;9.75;100.00;100780.06;4898090;29;20049;-71
2022/02/22 18:17:31;;;;;;;16.05;10.18;;;;;;;9.66;100.00;100778.44;4898513;29;20024;-71
2022/02/22 18:20:18;;;;;;;17.70;10.77;;;;;;;9.91;100.00;100787.72;4898426;29;20059;-71
2022/02/22 18:23:03;;;;;;;16.42;10.82;;;;;;;9.92;100.00;100789.44;4897917;29;20031;-71
2022/02/22 18:25:49;;;;;;;17.52;10.82;;;;;;;9.87;100.00;100795.59;4899193;29;20032;-71
2022/02/22 18:28:35;;;;;;;18.10;10.73;;;;;;;10.01;100.00;100799.75;4898029;29;20044;-71
2022/02/22 18:31:21;;;;;;;19.85;11.70;;;;;;;9.92;100.00;100807.75;4897911;29;20096;-71
2022/02/22 18:34:07;;;;;;;15.30;10.50;;;;;;;9.91;100.00;100811.25;4897773;29;20036;-71
2022/02/22 18:36:52;;;;;;;15.15;10.68;;;;;;;9.85;100.00;100818.31;4884304;29;20025;-71
2022/02/22 18:39:40;;;;;;;15.60;10.70;;;;;;;10.01;100.00;100819.84;4898025;29;20422;-71
2022/02/22 18:42:26;;;;;;;24.17;15.02;;;;;;;9.79;100.00;100821.00;4897722;29;20043;-70
2022/02/22 18:45:13;;;;;;;18.98;13.00;;;;;;;9.78;100.00;100832.38;4898499;29;20029;-71
2022/02/22 18:47:58;;;;;;;19.05;11.82;;;;;;;9.90;100.00;100840.91;4897510;29;20029;-71
2022/02/22 18:50:44;;;;;;;15.73;10.98;;;;;;;9.36;100.00;100838.06;4898009;29;20353;-71
2022/02/22 18:53:30;;;;;;;16.83;11.43;;;;;;;9.44;100.00;100844.09;4897845;29;20072;-71
2022/02/22 18:56:19;;;;;;;17.05;11.82;;;;;;;9.45;100.00;100849.31;4898166;29;20429;-72
2022/02/22 18:59:05;;;;;;;21.05;12.52;;;;;;;9.64;100.00;100849.97;4897586;29;20354;-70
2022/02/22 19:01:51;;;;;;;21.27;12.75;;;;;;;9.64;100.00;100853.44;4898357;29;20084;-71
2022/02/22 19:04:37;;;;;;;18.48;12.48;;;;;;;9.88;100.00;100866.25;4898281;29;20530;-71
2022/02/22 19:07:22;;;;;;;19.63;12.90;;;;;;;10.03;100.00;100863.44;4898522;29;20025;-71
2022/02/22 19:10:09;;;;;;;15.90;11.10;;;;;;;9.93;100.00;100874.06;4901452;29;20036;-72
2022/02/22 19:12:55;;;;;;;20.38;12.75;;;;;;;9.75;100.00;100869.03;4901307;29;20425;-71
2022/02/22 19:15:42;;;;;;;17.88;11.73;;;;;;;9.96;100.00;100874.00;4887188;29;20048;-71
2022/02/22 19:18:28;;;;;;;20.38;12.73;;;;;;;9.92;100.00;100880.16;4901255;29;20024;-72
2022/02/22 19:21:15;;;;;;;19.85;12.07;;;;;;;10.06;100.00;100886.13;4901197;29;20409;-71
2022/02/22 19:24:01;;;;;;;19.48;11.65;;;;;;;9.99;100.00;100893.16;4899984;29;20039;-72
2022/02/22 19:26:50;;;;;;;18.65;12.95;;;;;;;9.65;100.00;100893.56;4900821;29;20108;-71
2022/02/22 19:29:36;;;;;;;20.63;11.82;;;;;;;8.90;100.00;100899.50;4900070;29;20402;-71
2022/02/22 19:32:23;;;;;;;18.98;12.80;;;;;;;9.05;100.00;100904.63;4900889;29;20036;-70
2022/02/22 19:35:09;;;;;;;20.83;13.45;;;;;;;9.84;100.00;100914.25;4900871;29;20368;-72
2022/02/22 19:37:54;;;;;;;21.27;12.57;;;;;;;9.81;100.00;100910.84;4901422;29;20083;-72
2022/02/22 19:40:40;;;;;;;20.30;13.73;;;;;;;9.58;100.00;100912.81;4900472;29;20121;-71
2022/02/22 19:43:27;;;;;;;20.38;12.98;;;;;;;9.92;100.00;100912.44;4901683;29;20445;-71
2022/02/22 19:46:13;;;;;;;21.70;14.35;;;;;;;9.97;100.00;100928.09;4900071;29;20032;-70
2022/02/22 19:49:00;;;;;;;22.08;15.05;;;;;;;9.80;100.00;100925.66;4900869;29;20111;-71
2022/02/22 19:51:45;;;;;;;23.20;13.70;;;;;;;9.20;100.00;100928.88;4900501;29;20111;-71
2022/02/22 19:54:37;;;;;;;22.23;13.77;;;;;;;9.34;100.00;100934.84;4900207;29;20346;-71
2022/02/22 19:57:23;;;;;;;22.23;14.63;;;;;;;9.78;100.00;100934.41;4900106;29;20021;-71
2022/02/22 20:00:09;;;;;;;21.98;14.88;;;;;;;9.61;100.00;100933.72;4900114;29;20060;-72
2022/02/22 20:02:55;;;;;;;21.27;14.68;;;;;;;9.88;100.00;100938.63;4900468;29;20048;-71
2022/02/22 20:05:40;;;;;;;22.42;14.70;;;;;;;9.05;100.00;100941.19;4900115;29;20036;-71
2022/02/22 20:08:26;;;;;;;22.98;15.32;;;;;;;9.50;100.00;100944.28;4900470;29;20028;-72
2022/02/22 20:11:12;;;;;;;21.40;14.27;;;;;;;9.71;100.00;100949.31;4900029;29;20119;-71
2022/02/22 20:13:59;;;;;;;19.98;13.68;;;;;;;9.57;100.00;100956.41;4899917;29;20060;-71
2022/02/22 20:16:47;;;;;;;22.23;14.15;;;;;;;9.62;100.00;100954.59;4899535;29;20036;-71
2022/02/22 20:19:34;;;;;;;22.02;13.43;;;;;;;9.54;100.00;100964.31;4899072;29;20056;-71
2022/02/22 20:22:20;;;;;;;19.60;13.15;;;;;;;9.22;100.00;100970.69;4900515;29;20111;-71
2022/02/22 20:25:07;;;;;;;22.73;14.10;;;;;;;9.52;100.00;100971.28;4899711;29;20058;-71
2022/02/22 20:27:53;;;;;;;22.85;14.82;;;;;;;9.36;100.00;100974.03;4900107;29;20033;-71
2022/02/22 20:30:39;;;;;;;22.23;14.45;;;;;;;9.59;100.00;100983.44;4900123;29;20029;-71
2022/02/22 20:33:25;;;;;;;19.33;13.55;;;;;;;9.52;100.00;100986.97;4898915;29;20366;-71
2022/02/22 20:36:11;;;;;;;22.58;14.25;;;;;;;9.53;100.00;100983.47;4899044;29;20039;-71
2022/02/22 20:38:56;;;;;;;22.73;14.35;;;;;;;8.99;100.00;100999.59;4900192;29;20422;-71
2022/02/22 20:41:42;;;;;;;24.27;15.48;;;;;;;9.45;100.00;101005.34;4899130;29;20036;-71
2022/02/22 20:44:28;;;;;;;24.95;14.93;;;;;;;9.04;100.00;101005.66;4899393;29;20028;-70
2022/02/22 20:47:14;;;;;;;23.45;14.95;;;;;;;9.19;100.00;101017.75;4899145;29;20389;-71
2022/02/22 20:49:59;;;;;;;26.58;16.40;;;;;;;9.05;100.00;101006.53;4899401;29;20423;-70
2022/02/22 20:52:45;;;;;;;29.38;16.30;;;;;;;9.50;100.00;101007.06;4899317;29;20127;-71
2022/02/22 20:55:31;;;;;;;24.73;15.60;;;;;;;9.21;100.00;101019.47;4900149;29;20059;-72
2022/02/22 20:58:17;;;;;;;23.08;15.10;;;;;;;8.93;100.00;101017.91;4899119;29;20059;-71
2022/02/22 21:01:03;;;;;;;24.73;15.18;;;;;;;9.18;100.00;101022.13;4898346;29;20028;-71
2022/02/22 21:03:51;;;;;;;26.45;16.63;;;;;;;9.05;100.00;101022.22;4899597;29;20039;-71
2022/02/22 21:06:37;;;;;;;22.73;15.63;;;;;;;8.79;100.00;101032.81;4898161;29;20025;-71
2022/02/22 21:09:22;;;;;;;23.67;16.65;;;;;;;9.18;100.00;101029.09;4898374;29;20139;-71
2022/02/22 21:12:11;;;;;;;23.80;16.00;;;;;;;9.41;100.00;101045.50;4898477;29;20035;-71
2022/02/22 21:14:56;;;;;;;27.63;17.20;;;;;;;9.31;100.00;101047.31;4898965;29;20205;-72
2022/02/22 21:17:43;;;;;;;25.92;16.35;;;;;;;9.32;100.00;101050.75;4898317;29;20024;-70
2022/02/22 21:20:33;;;;;;;32.97;19.13;;;;;;;9.39;100.00;101052.47;4899053;29;20318;-71
2022/02/22 21:23:18;;;;;;;30.65;18.92;;;;;;;9.43;100.00;101054.19;4898465;29;20041;-71
2022/02/22 21:26:04;;;;;;;32.95;19.60;;;;;;;9.59;100.00;101064.53;4898489;29;20034;-70
2022/02/22 21:28:50;;;;;;;30.98;19.42;;;;;;;9.39;100.00;101058.56;4898599;29;20108;-71
2022/02/22 21:31:36;;;;;;;33.88;19.50;;;;;;;8.87;100.00;101062.38;4898171;29;20032;-71
2022/02/22 21:34:22;;;;;;;31.63;19.85;;;;;;;9.42;100.00;101062.91;4899528;29;20020;-71
2022/02/22 21:37:08;;;;;;;28.58;18.52;;;;;;;9.53;100.00;101059.31;4898725;29;20021;-70
2022/02/22 21:39:54;;;;;;;31.23;18.73;;;;;;;9.37;100.00;101064.69;4897949;29;20127;-71
2022/02/22 21:42:40;;;;;;;28.60;18.73;;;;;;;9.53;100.00;101059.31;4898808;29;20020;-71
2022/02/22 21:45:26;;;;;;;30.38;19.17;;;;;;;9.34;100.00;101070.81;4898597;29;20465;-70
2022/02/22 21:48:12;;;;;;;28.40;17.58;;;;;;;9.59;100.00;101069.75;4898766;29;20459;-71
2022/02/22 21:50:59;;;;;;;29.88;18.45;;;;;;;9.18;100.00;101079.63;4898594;29;20032;-71